Time;durP1;ratioP1;P1;durP2;ratioP2;P2;SDS_P1;SDS_P2;PMS_P1;PMS_P2;Temp;Humidity;BMP_temperature;BMP_pressure;BME280_temperature;BME280_humidity;BME280_pressure;Samples;Min_cycle;Max_cycle;Signal;HPM_P1;HPM_P2
2021/01/21 00:01:35;;;;;;;1.70;1.60;;;11.60;99.90;;;;;;3630137;39;20263;-76
2021/01/21 00:04:03;;;;;;;5.40;2.10;;;11.50;99.90;;;;;;3634103;39;20242;-76
2021/01/21 00:06:29;;;;;;;3.53;1.40;;;11.50;99.90;;;;;;3631037;39;20672;-76
2021/01/21 00:08:56;;;;;;;5.40;1.25;;;11.50;99.90;;;;;;3633371;39;20235;-76
2021/01/21 00:11:22;;;;;;;3.63;1.50;;;11.50;99.90;;;;;;3634841;39;20251;-76
2021/01/21 00:13:48;;;;;;;3.17;1.20;;;11.50;99.90;;;;;;3635927;39;20294;-76
2021/01/21 00:16:15;;;;;;;5.85;2.25;;;11.50;99.90;;;;;;3643313;39;20241;-76
2021/01/21 00:18:42;;;;;;;3.08;1.67;;;11.50;99.90;;;;;;3637938;39;20246;-76
2021/01/21 00:21:09;;;;;;;4.43;1.85;;;11.50;99.90;;;;;;3641552;39;20231;-76
2021/01/21 00:23:35;;;;;;;1.55;1.45;;;11.50;99.90;;;;;;3638776;39;20250;-76
2021/01/21 00:26:02;;;;;;;1.58;1.48;;;11.50;99.90;;;;;;3632757;39;20255;-76
2021/01/21 00:28:28;;;;;;;3.22;1.30;;;11.50;99.90;;;;;;3635422;39;20277;-77
2021/01/21 00:30:55;;;;;;;4.78;1.85;;;11.40;99.90;;;;;;3634761;39;20305;-77
2021/01/21 00:33:21;;;;;;;3.28;1.35;;;11.30;99.90;;;;;;3631865;39;20330;-76
2021/01/21 00:35:48;;;;;;;2.53;1.38;;;11.30;99.90;;;;;;3632021;39;20238;-76
2021/01/21 00:38:15;;;;;;;3.22;1.42;;;11.30;99.90;;;;;;3631835;39;20312;-76
2021/01/21 00:40:42;;;;;;;4.68;1.30;;;11.30;99.90;;;;;;3632170;39;20246;-76
2021/01/21 00:43:08;;;;;;;3.22;2.00;;;11.20;99.90;;;;;;3632011;39;20259;-76
2021/01/21 00:45:34;;;;;;;1.67;1.10;;;11.20;99.90;;;;;;3632176;39;20391;-76
2021/01/21 00:48:01;;;;;;;5.22;1.30;;;11.20;99.90;;;;;;3631717;39;20682;-77
2021/01/21 00:50:27;;;;;;;2.05;1.27;;;11.30;99.90;;;;;;3634240;39;20283;-76
2021/01/21 00:52:54;;;;;;;3.33;1.40;;;11.30;99.90;;;;;;3631631;39;20841;-76
2021/01/21 00:55:22;;;;;;;2.55;1.20;;;11.30;99.90;;;;;;3631593;39;20298;-76
2021/01/21 00:57:49;;;;;;;4.47;0.93;;;11.30;99.90;;;;;;3631788;39;20251;-76
2021/01/21 01:00:16;;;;;;;7.80;1.20;;;11.40;99.90;;;;;;3633563;39;20662;-76
2021/01/21 01:02:43;;;;;;;4.55;1.17;;;11.40;99.90;;;;;;3636846;39;20283;-76
2021/01/21 01:05:10;;;;;;;3.70;1.17;;;11.40;99.90;;;;;;3634460;39;20278;-76
2021/01/21 01:07:37;;;;;;;5.97;1.15;;;11.40;99.90;;;;;;3641895;31;20412;-76
2021/01/21 01:10:04;;;;;;;2.08;1.30;;;11.40;99.90;;;;;;3631551;39;20263;-76
2021/01/21 01:12:31;;;;;;;2.53;1.30;;;11.40;99.90;;;;;;3635684;39;20267;-76
2021/01/21 01:14:58;;;;;;;2.35;1.25;;;11.40;99.90;;;;;;3631533;39;20262;-76
2021/01/21 01:17:24;;;;;;;2.20;1.08;;;11.40;99.90;;;;;;3636519;39;20259;-76
2021/01/21 01:19:50;;;;;;;5.28;1.25;;;11.40;99.90;;;;;;3635564;39;20263;-77
2021/01/21 01:22:17;;;;;;;3.15;1.00;;;11.50;99.90;;;;;;3631370;39;20260;-77
2021/01/21 01:24:43;;;;;;;4.38;1.05;;;11.50;99.90;;;;;;3631651;39;20299;-76
2021/01/21 01:27:10;;;;;;;2.55;1.38;;;11.50;99.90;;;;;;3636387;39;20285;-76
2021/01/21 01:29:38;;;;;;;1.48;1.38;;;11.50;99.90;;;;;;3636524;39;20342;-76
2021/01/21 01:32:04;;;;;;;2.05;1.05;;;11.50;99.90;;;;;;3632196;39;20278;-76
2021/01/21 01:34:31;;;;;;;7.22;1.50;;;11.50;99.90;;;;;;3633181;39;20245;-76
2021/01/21 01:36:57;;;;;;;2.63;1.23;;;11.50;99.90;;;;;;3632716;39;20256;-76
2021/01/21 01:39:24;;;;;;;4.80;1.35;;;11.50;99.90;;;;;;3631534;39;20267;-76
2021/01/21 01:41:50;;;;;;;6.47;1.00;;;11.50;99.90;;;;;;3631019;39;20798;-76
2021/01/21 01:44:17;;;;;;;1.33;1.17;;;11.40;99.90;;;;;;3631380;39;20862;-77
2021/01/21 01:46:44;;;;;;;2.53;1.40;;;11.40;99.90;;;;;;3632635;39;20338;-76
2021/01/21 01:49:11;;;;;;;5.82;1.35;;;11.40;99.90;;;;;;3630889;39;20263;-76
2021/01/21 01:51:38;;;;;;;2.88;1.00;;;11.40;99.90;;;;;;3633927;39;20251;-76
2021/01/21 01:54:06;;;;;;;1.48;1.33;;;11.40;99.90;;;;;;3630851;39;20286;-77
2021/01/21 01:56:32;;;;;;;4.15;1.52;;;11.40;99.90;;;;;;3630674;39;21341;-77
2021/01/21 01:58:59;;;;;;;2.65;2.03;;;11.40;99.90;;;;;;3630882;39;20260;-76
2021/01/21 02:01:26;;;;;;;1.42;1.30;;;11.40;99.90;;;;;;3631086;39;20283;-76
2021/01/21 02:03:54;;;;;;;1.90;1.38;;;11.40;99.90;;;;;;3643474;31;20302;-76
2021/01/21 02:06:22;;;;;;;3.90;1.38;;;11.40;99.90;;;;;;3631446;39;20243;-76
2021/01/21 02:08:48;;;;;;;1.48;1.25;;;11.40;99.90;;;;;;3631132;39;20274;-76
2021/01/21 02:11:27;;;;;;;1.98;1.00;;;11.40;99.90;;;;;;3633186;39;20280;-76
2021/01/21 02:14:01;;;;;;;4.70;1.58;;;11.50;99.90;;;;;;3630956;39;20263;-76
2021/01/21 02:16:58;;;;;;;1.17;1.08;;;11.50;99.90;;;;;;3630878;39;20357;-76
2021/01/21 02:20:17;;;;;;;2.35;1.08;;;11.60;99.90;;;;;;3630818;39;20263;-76
2021/01/21 02:23:13;;;;;;;1.33;1.23;;;11.60;99.90;;;;;;3593222;40;20245;-76
2021/01/21 02:25:43;;;;;;;4.82;1.55;;;11.70;99.90;;;;;;3596838;40;20599;-76
2021/01/21 02:28:45;;;;;;;2.65;1.30;;;11.70;99.90;;;;;;3594542;40;20258;-75
2021/01/21 02:31:26;;;;;;;2.35;1.10;;;11.70;99.90;;;;;;3591566;40;20251;-75
2021/01/21 02:34:00;;;;;;;1.70;1.30;;;11.80;99.90;;;;;;3595715;40;20263;-75
2021/01/21 02:36:34;;;;;;;1.10;1.10;;;11.80;99.90;;;;;;3587693;40;20310;-76
2021/01/21 02:39:03;;;;;;;1.88;1.20;;;11.80;99.90;;;;;;3593906;40;20287;-73
2021/01/21 02:41:32;;;;;;;3.92;1.70;;;11.80;99.90;;;;;;3594076;40;20248;-75
2021/01/21 02:43:58;;;;;;;2.83;1.42;;;11.90;99.90;;;;;;3593724;40;20260;-76
2021/01/21 02:46:25;;;;;;;1.15;1.10;;;11.90;99.90;;;;;;3596048;40;20344;-76
2021/01/21 02:48:53;;;;;;;7.88;1.42;;;11.90;99.90;;;;;;3595897;40;20249;-76
2021/01/21 02:51:29;;;;;;;1.33;1.02;;;11.90;99.90;;;;;;3593454;40;20277;-76
2021/01/21 02:54:10;;;;;;;1.35;1.25;;;11.90;99.90;;;;;;3591937;40;20733;-76
2021/01/21 02:56:40;;;;;;;1.20;1.08;;;12.00;99.90;;;;;;3594591;40;20264;-76
2021/01/21 02:59:08;;;;;;;3.88;1.50;;;12.00;99.90;;;;;;3614293;39;20782;-76
2021/01/21 03:01:37;;;;;;;3.00;1.58;;;12.00;99.90;;;;;;3632970;39;20391;-76
2021/01/21 03:04:04;;;;;;;1.63;1.40;;;12.00;99.90;;;;;;3630574;39;20275;-77
2021/01/21 03:06:33;;;;;;;2.85;1.08;;;12.10;99.90;;;;;;3651927;31;20239;-77
2021/01/21 03:09:00;;;;;;;3.30;1.55;;;12.10;99.90;;;;;;3631163;39;20348;-77
2021/01/21 03:11:27;;;;;;;2.70;1.42;;;12.10;99.90;;;;;;3633971;39;20263;-77
2021/01/21 03:13:54;;;;;;;6.93;1.33;;;12.10;99.90;;;;;;3634072;39;20350;-77
2021/01/21 03:16:21;;;;;;;2.90;1.40;;;12.20;99.90;;;;;;3630770;39;20291;-77
2021/01/21 03:18:50;;;;;;;2.00;1.02;;;12.20;99.90;;;;;;3630397;39;20263;-77
2021/01/21 03:21:18;;;;;;;1.50;1.40;;;12.10;99.90;;;;;;3661789;31;21237;-77
2021/01/21 03:23:46;;;;;;;2.47;1.40;;;12.20;99.90;;;;;;3631972;39;20322;-77
2021/01/21 03:26:13;;;;;;;7.75;1.50;;;12.20;99.90;;;;;;3630671;39;20251;-77
2021/01/21 03:28:40;;;;;;;1.40;1.30;;;12.20;99.90;;;;;;3631074;39;20309;-78
2021/01/21 03:31:06;;;;;;;4.15;1.30;;;12.20;99.90;;;;;;3630111;39;20235;-77
2021/01/21 03:33:33;;;;;;;3.25;1.55;;;12.20;99.90;;;;;;3650096;31;20262;-77
2021/01/21 03:36:00;;;;;;;1.83;1.30;;;12.20;99.90;;;;;;3632912;39;20255;-77
2021/01/21 03:38:26;;;;;;;2.15;1.58;;;12.20;99.90;;;;;;3633966;39;20271;-77
2021/01/21 03:40:54;;;;;;;5.13;1.42;;;12.20;99.90;;;;;;3630770;39;20261;-76
2021/01/21 03:43:20;;;;;;;1.30;1.20;;;12.20;99.90;;;;;;3630663;39;20243;-76
2021/01/21 03:45:46;;;;;;;1.55;0.80;;;12.30;99.90;;;;;;3630356;39;20277;-76
2021/01/21 03:48:13;;;;;;;1.17;1.08;;;12.30;99.90;;;;;;3648161;31;20276;-77
2021/01/21 03:50:39;;;;;;;2.35;1.25;;;12.30;99.90;;;;;;3634397;39;20246;-76
2021/01/21 03:53:06;;;;;;;3.90;1.40;;;12.30;99.90;;;;;;3633302;39;20317;-76
2021/01/21 03:55:32;;;;;;;4.30;1.45;;;12.30;99.90;;;;;;3631988;39;20257;-76
2021/01/21 03:58:00;;;;;;;5.20;1.30;;;12.30;99.90;;;;;;3631922;39;20263;-77
2021/01/21 04:00:26;;;;;;;4.78;1.20;;;12.30;99.90;;;;;;3632319;39;20243;-77
2021/01/21 04:02:53;;;;;;;3.78;1.13;;;12.30;99.90;;;;;;3632152;39;20255;-77
2021/01/21 04:05:19;;;;;;;3.85;1.45;;;12.30;99.90;;;;;;3632188;39;20304;-77
2021/01/21 04:07:46;;;;;;;1.30;1.20;;;12.30;99.90;;;;;;3632165;39;20351;-77
2021/01/21 04:10:13;;;;;;;1.55;1.20;;;12.30;99.90;;;;;;3632133;39;20286;-76
2021/01/21 04:12:39;;;;;;;2.63;1.30;;;12.30;99.90;;;;;;3631947;39;20760;-76
2021/01/21 04:15:09;;;;;;;1.40;1.30;;;12.30;99.90;;;;;;3631937;39;20783;-76
2021/01/21 04:17:35;;;;;;;2.40;1.25;;;12.30;99.90;;;;;;3634788;39;20279;-76
2021/01/21 04:20:02;;;;;;;2.05;1.27;;;12.30;99.90;;;;;;3635316;39;20356;-76
2021/01/21 04:22:28;;;;;;;1.30;1.20;;;12.40;99.90;;;;;;3637204;39;20259;-76
2021/01/21 04:24:55;;;;;;;3.75;1.40;;;12.40;99.90;;;;;;3633599;39;20373;-77
2021/01/21 04:27:21;;;;;;;2.92;1.05;;;12.40;99.90;;;;;;3631930;39;20265;-76
2021/01/21 04:29:48;;;;;;;0.90;0.90;;;12.40;99.90;;;;;;3631670;39;20263;-76
2021/01/21 04:32:15;;;;;;;1.08;0.98;;;12.40;99.90;;;;;;3636240;39;20269;-76
2021/01/21 04:34:41;;;;;;;2.75;0.98;;;12.40;99.90;;;;;;3632181;39;20339;-76
2021/01/21 04:37:08;;;;;;;1.02;1.02;;;12.40;99.90;;;;;;3632088;39;20267;-76
2021/01/21 04:39:34;;;;;;;1.70;1.05;;;12.40;99.90;;;;;;3633017;39;20304;-76
2021/01/21 04:42:01;;;;;;;1.33;1.00;;;12.40;99.90;;;;;;3632605;39;20288;-76
2021/01/21 04:44:28;;;;;;;1.20;1.10;;;12.40;99.90;;;;;;3631728;39;20248;-76
2021/01/21 04:46:55;;;;;;;2.05;1.20;;;12.40;99.90;;;;;;3632078;39;20271;-76
2021/01/21 04:49:23;;;;;;;1.27;1.17;;;12.40;99.90;;;;;;3633322;39;20797;-76
2021/01/21 04:51:52;;;;;;;1.23;1.13;;;12.40;99.90;;;;;;3634870;39;20266;-76
2021/01/21 04:54:37;;;;;;;1.00;1.00;;;12.30;99.90;;;;;;3633447;39;20273;-76
2021/01/21 04:57:06;;;;;;;2.40;1.35;;;12.30;99.90;;;;;;3631414;39;20294;-77
2021/01/21 04:59:36;;;;;;;1.10;1.00;;;12.30;99.90;;;;;;3631805;39;20256;-76
2021/01/21 05:02:04;;;;;;;0.98;0.88;;;12.30;99.90;;;;;;3633416;39;20289;-76
2021/01/21 05:04:31;;;;;;;2.22;1.00;;;12.30;99.90;;;;;;3636642;39;20251;-77
2021/01/21 05:06:58;;;;;;;4.70;0.95;;;12.30;99.90;;;;;;3631781;39;20259;-77
2021/01/21 05:09:25;;;;;;;1.45;0.95;;;12.20;99.90;;;;;;3631437;39;20335;-77
2021/01/21 05:11:54;;;;;;;3.00;1.10;;;12.10;99.90;;;;;;3635391;39;20248;-76
2021/01/21 05:14:20;;;;;;;1.20;1.10;;;12.10;99.90;;;;;;3635863;39;20235;-76
2021/01/21 05:16:47;;;;;;;1.02;0.93;;;12.00;99.90;;;;;;3637511;39;21975;-76
2021/01/21 05:19:15;;;;;;;5.70;1.10;;;11.90;99.90;;;;;;3639389;39;20276;-76
2021/01/21 05:21:42;;;;;;;1.15;0.88;;;11.80;99.90;;;;;;3637932;39;20241;-76
2021/01/21 05:24:11;;;;;;;2.28;1.52;;;11.60;99.90;;;;;;3633645;39;20282;-76
2021/01/21 05:26:39;;;;;;;0.95;0.90;;;11.40;99.90;;;;;;3633078;39;20301;-74
2021/01/21 05:29:05;;;;;;;1.38;0.70;;;11.00;99.90;;;;;;3631278;39;20239;-74
2021/01/21 05:31:33;;;;;;;1.02;0.93;;;10.60;99.90;;;;;;3631607;39;20240;-74
2021/01/21 05:34:00;;;;;;;1.10;1.10;;;10.10;99.90;;;;;;3634321;39;20255;-74
2021/01/21 05:36:27;;;;;;;2.30;1.63;;;9.80;99.90;;;;;;3634127;39;20331;-76
2021/01/21 05:38:56;;;;;;;2.97;1.70;;;9.50;99.90;;;;;;3632521;39;20262;-76
2021/01/21 05:41:24;;;;;;;2.78;1.63;;;9.20;99.90;;;;;;3635785;31;20239;-76
2021/01/21 05:43:51;;;;;;;4.75;0.77;;;9.00;99.90;;;;;;3631094;39;20261;-76
2021/01/21 05:46:18;;;;;;;3.22;1.45;;;8.70;99.90;;;;;;3631417;39;20251;-76
2021/01/21 05:48:45;;;;;;;0.88;0.88;;;8.50;99.90;;;;;;3631199;39;20263;-76
2021/01/21 05:51:12;;;;;;;1.00;0.90;;;8.40;99.90;;;;;;3631633;39;20271;-76
2021/01/21 05:53:40;;;;;;;1.45;0.88;;;8.10;99.90;;;;;;3631891;39;20805;-77
2021/01/21 05:56:10;;;;;;;4.07;2.20;;;7.90;99.90;;;;;;3631073;39;20350;-77
2021/01/21 05:58:37;;;;;;;4.95;1.90;;;7.70;99.90;;;;;;3631514;39;20235;-77
2021/01/21 06:01:05;;;;;;;4.55;1.80;;;7.40;99.90;;;;;;3630964;39;20363;-78
2021/01/21 06:03:33;;;;;;;4.30;0.60;;;7.20;99.90;;;;;;3631225;39;20274;-77
2021/01/21 06:06:02;;;;;;;0.95;0.50;;;7.10;99.90;;;;;;3649979;31;20423;-77
2021/01/21 06:08:29;;;;;;;3.10;0.70;;;7.10;99.90;;;;;;3630501;39;20255;-77
2021/01/21 06:10:56;;;;;;;2.15;0.60;;;7.00;99.90;;;;;;3633492;39;20297;-77
2021/01/21 06:13:27;;;;;;;0.90;0.90;;;7.00;99.90;;;;;;3630846;39;20255;-77
2021/01/21 06:15:54;;;;;;;3.22;1.40;;;6.90;99.90;;;;;;3631036;39;20331;-77
2021/01/21 06:18:20;;;;;;;6.05;0.80;;;6.90;99.90;;;;;;3631293;39;20273;-76
2021/01/21 06:20:47;;;;;;;3.00;0.82;;;6.90;99.90;;;;;;3630999;39;20251;-76
2021/01/21 06:23:19;;;;;;;1.63;0.70;;;6.90;99.90;;;;;;3635997;31;20285;-76
2021/01/21 06:25:47;;;;;;;3.53;0.70;;;6.90;99.90;;;;;;3629096;39;20293;-77
2021/01/21 06:28:16;;;;;;;5.90;0.80;;;7.00;99.90;;;;;;3635745;39;20378;-77
2021/01/21 06:30:43;;;;;;;0.95;0.80;;;7.00;99.90;;;;;;3630695;39;20305;-77
2021/01/21 06:33:16;;;;;;;3.58;1.05;;;7.00;99.90;;;;;;3634901;39;20825;-76
2021/01/21 06:35:47;;;;;;;2.63;1.25;;;6.90;99.90;;;;;;3630394;39;20251;-77
2021/01/21 06:38:16;;;;;;;1.38;0.52;;;6.90;99.90;;;;;;3632424;39;20278;-76
2021/01/21 06:40:48;;;;;;;0.50;0.50;;;6.90;99.90;;;;;;3634111;39;20656;-76
2021/01/21 06:43:17;;;;;;;2.95;1.08;;;6.90;99.90;;;;;;3630530;39;20283;-77
2021/01/21 06:45:44;;;;;;;4.70;1.05;;;6.90;99.90;;;;;;3633012;39;20259;-77
2021/01/21 06:48:12;;;;;;;7.45;0.98;;;6.90;99.90;;;;;;3630790;39;20276;-77
2021/01/21 06:50:40;;;;;;;1.58;0.75;;;6.90;99.90;;;;;;3631069;39;20359;-77
2021/01/21 06:53:08;;;;;;;1.40;0.73;;;6.80;99.90;;;;;;3634314;39;20269;-76
2021/01/21 06:55:36;;;;;;;4.10;0.70;;;6.80;99.90;;;;;;3634697;39;20259;-76
2021/01/21 06:58:03;;;;;;;2.53;1.20;;;6.80;99.90;;;;;;3630581;39;20280;-77
2021/01/21 07:00:41;;;;;;;4.72;1.10;;;6.80;99.90;;;;;;3630953;39;20631;-77
2021/01/21 07:03:26;;;;;;;2.72;0.80;;;6.80;99.90;;;;;;3631323;39;20355;-77
2021/01/21 07:05:56;;;;;;;2.28;0.93;;;6.80;99.90;;;;;;3630691;39;20254;-77
2021/01/21 07:08:23;;;;;;;6.38;1.33;;;6.80;99.90;;;;;;3632446;39;20274;-77
2021/01/21 07:10:50;;;;;;;5.60;1.13;;;6.80;99.90;;;;;;3633055;39;20259;-77
2021/01/21 07:13:18;;;;;;;3.50;1.20;;;6.80;99.90;;;;;;3633751;39;20247;-77
2021/01/21 07:15:47;;;;;;;4.03;1.20;;;6.70;99.90;;;;;;3632259;39;20267;-76
2021/01/21 07:18:17;;;;;;;7.85;1.40;;;6.70;99.90;;;;;;3638704;31;20258;-76
2021/01/21 07:21:13;;;;;;;2.85;1.13;;;6.70;99.90;;;;;;3631627;39;20251;-76
2021/01/21 07:23:44;;;;;;;4.00;1.23;;;6.80;99.90;;;;;;3632665;39;20246;-76
2021/01/21 07:26:31;;;;;;;3.53;1.23;;;6.80;99.90;;;;;;3632106;39;20139;-76
2021/01/21 07:29:10;;;;;;;5.88;1.42;;;6.90;99.90;;;;;;3635544;39;20258;-77
2021/01/21 07:32:10;;;;;;;2.22;1.58;;;6.90;99.90;;;;;;3636326;39;20258;-76
2021/01/21 07:34:45;;;;;;;2.60;1.35;;;6.90;99.90;;;;;;3632452;39;20255;-77
2021/01/21 07:37:22;;;;;;;6.53;1.50;;;6.90;99.90;;;;;;3639153;39;20292;-77
2021/01/21 07:40:03;;;;;;;4.43;1.27;;;6.90;99.90;;;;;;3632360;39;20881;-77
2021/01/21 07:42:52;;;;;;;2.90;1.25;;;6.90;99.90;;;;;;3633445;39;20257;-77
2021/01/21 07:45:29;;;;;;;4.88;1.52;;;6.90;99.90;;;;;;3632021;39;20279;-76
2021/01/21 07:47:57;;;;;;;2.63;1.15;;;6.90;99.90;;;;;;3632470;39;20300;-75
2021/01/21 07:50:32;;;;;;;3.70;1.23;;;6.80;99.90;;;;;;3650416;31;20327;-76
2021/01/21 07:53:00;;;;;;;4.32;1.15;;;6.80;99.90;;;;;;3632512;39;20246;-75
2021/01/21 07:55:28;;;;;;;1.73;1.10;;;6.70;99.90;;;;;;3632995;39;20235;-76
2021/01/21 07:57:55;;;;;;;10.18;1.23;;;6.70;99.90;;;;;;3635662;39;20255;-76
2021/01/21 08:00:22;;;;;;;5.63;1.40;;;6.70;99.90;;;;;;3632688;39;20290;-75
2021/01/21 08:02:50;;;;;;;6.20;1.38;;;6.60;99.90;;;;;;3632346;39;20259;-75
2021/01/21 08:05:17;;;;;;;3.53;1.40;;;6.60;99.90;;;;;;3631990;39;20247;-76
2021/01/21 08:07:46;;;;;;;5.93;1.50;;;6.70;99.90;;;;;;3635448;39;20730;-76
2021/01/21 08:10:14;;;;;;;6.93;1.50;;;6.60;99.90;;;;;;3634261;39;20267;-76
2021/01/21 08:12:40;;;;;;;5.10;2.05;;;6.60;99.90;;;;;;3632216;39;20247;-75
2021/01/21 08:15:16;;;;;;;6.15;2.28;;;6.50;99.90;;;;;;3635238;39;20338;-76
2021/01/21 08:17:43;;;;;;;4.95;2.08;;;6.50;99.90;;;;;;3647433;39;20258;-75
2021/01/21 08:20:10;;;;;;;3.33;1.40;;;6.50;99.90;;;;;;3635208;39;20266;-76
2021/01/21 08:22:56;;;;;;;14.93;1.98;;;6.50;99.90;;;;;;3632140;39;20774;-76
2021/01/21 08:25:23;;;;;;;5.22;1.67;;;6.50;99.90;;;;;;3636796;39;20251;-76
2021/01/21 08:27:51;;;;;;;3.75;1.40;;;6.50;99.90;;;;;;3638654;39;20761;-76
2021/01/21 08:30:22;;;;;;;6.40;1.15;;;6.50;99.90;;;;;;3632288;39;20270;-75
2021/01/21 08:32:58;;;;;;;3.60;1.08;;;6.50;99.90;;;;;;3631920;39;20271;-75
2021/01/21 08:35:27;;;;;;;3.30;1.30;;;6.50;99.90;;;;;;3632161;39;20312;-75
2021/01/21 08:37:56;;;;;;;3.97;2.30;;;6.50;99.90;;;;;;3632637;39;20790;-77
2021/01/21 08:40:24;;;;;;;2.10;1.35;;;6.60;99.90;;;;;;3634202;39;20286;-75
2021/01/21 08:42:52;;;;;;;4.40;1.35;;;6.60;99.90;;;;;;3633929;39;20243;-75
2021/01/21 08:45:20;;;;;;;10.00;1.70;;;6.60;99.90;;;;;;3632108;39;20270;-75
2021/01/21 08:47:48;;;;;;;9.93;1.42;;;6.70;99.90;;;;;;3632154;39;20342;-76
2021/01/21 08:50:16;;;;;;;1.17;1.05;;;6.70;99.90;;;;;;3632094;39;20243;-75
2021/01/21 08:53:04;;;;;;;5.82;1.40;;;6.80;99.90;;;;;;3636719;39;20270;-75
2021/01/21 08:55:41;;;;;;;3.47;1.52;;;6.80;99.90;;;;;;3633562;39;20863;-76
2021/01/21 08:58:09;;;;;;;4.57;1.65;;;6.90;99.90;;;;;;3634341;39;20313;-75
2021/01/21 09:00:37;;;;;;;4.35;1.30;;;7.00;99.90;;;;;;3634312;39;20270;-76
2021/01/21 09:03:04;;;;;;;10.20;1.55;;;7.10;99.90;;;;;;3631423;39;20379;-75
2021/01/21 09:05:31;;;;;;;3.30;1.27;;;7.10;99.90;;;;;;3632530;39;20566;-75
2021/01/21 09:08:06;;;;;;;3.95;1.38;;;7.10;99.90;;;;;;3632545;39;20289;-75
2021/01/21 09:10:39;;;;;;;3.30;1.35;;;7.00;99.90;;;;;;3636103;39;20243;-75
2021/01/21 09:13:06;;;;;;;9.10;1.65;;;7.10;99.90;;;;;;3631489;39;20287;-75
2021/01/21 09:15:52;;;;;;;3.70;1.42;;;7.10;99.90;;;;;;3632053;39;20242;-75
2021/01/21 09:18:19;;;;;;;5.43;1.40;;;7.10;99.90;;;;;;3632270;39;20297;-75
2021/01/21 09:20:46;;;;;;;7.95;1.58;;;7.20;99.90;;;;;;3633782;39;20398;-75
2021/01/21 09:23:15;;;;;;;18.13;2.53;;;7.30;99.90;;;;;;3634529;39;20282;-75
2021/01/21 09:25:42;;;;;;;1.42;1.05;;;7.40;99.90;;;;;;3631141;39;20252;-75
2021/01/21 09:28:11;;;;;;;3.63;1.50;;;7.60;99.90;;;;;;3631835;39;20423;-75
2021/01/21 09:30:37;;;;;;;1.30;1.20;;;7.90;99.90;;;;;;3634630;39;20266;-75
2021/01/21 09:33:04;;;;;;;2.90;1.33;;;8.20;99.90;;;;;;3636033;39;20258;-75
2021/01/21 09:35:30;;;;;;;4.10;1.30;;;8.30;99.90;;;;;;3633432;39;20642;-76
2021/01/21 09:37:59;;;;;;;3.45;1.00;;;8.40;99.90;;;;;;3634446;39;20262;-75
2021/01/21 09:40:27;;;;;;;5.25;1.20;;;8.40;99.90;;;;;;3631224;39;20263;-76
2021/01/21 09:42:56;;;;;;;5.30;1.33;;;8.40;99.90;;;;;;3631257;39;20253;-76
2021/01/21 09:45:23;;;;;;;9.35;1.25;;;8.50;99.90;;;;;;3632020;39;20256;-76
2021/01/21 09:47:50;;;;;;;1.63;1.10;;;8.50;99.90;;;;;;3636735;39;20251;-76
2021/01/21 09:50:18;;;;;;;8.02;1.08;;;8.40;99.90;;;;;;3634341;39;20258;-77
2021/01/21 09:52:44;;;;;;;7.47;0.88;;;8.50;99.90;;;;;;3631154;39;20347;-76
2021/01/21 09:55:12;;;;;;;3.83;1.13;;;8.80;99.90;;;;;;3632577;39;20373;-76
2021/01/21 09:57:41;;;;;;;5.05;1.40;;;9.00;99.90;;;;;;3631435;39;20304;-75
2021/01/21 10:00:10;;;;;;;3.65;1.00;;;9.10;99.90;;;;;;3640360;31;20239;-75
2021/01/21 10:02:37;;;;;;;3.55;1.40;;;9.00;99.90;;;;;;3637260;39;20267;-75
2021/01/21 10:05:04;;;;;;;4.00;1.00;;;9.10;99.90;;;;;;3637181;39;20283;-75
2021/01/21 10:07:31;;;;;;;5.78;1.10;;;9.20;99.90;;;;;;3636753;39;20295;-75
2021/01/21 10:09:57;;;;;;;3.22;1.55;;;9.10;99.90;;;;;;3635522;39;20577;-75
2021/01/21 10:12:24;;;;;;;4.63;1.40;;;9.00;99.90;;;;;;3633045;39;20643;-75
2021/01/21 10:14:51;;;;;;;5.97;1.40;;;8.90;99.90;;;;;;3633774;39;20255;-75
2021/01/21 10:17:18;;;;;;;5.30;1.30;;;8.80;99.90;;;;;;3630701;39;20302;-75
2021/01/21 10:19:44;;;;;;;3.63;1.55;;;8.70;99.90;;;;;;3630931;39;20309;-75
2021/01/21 10:22:10;;;;;;;6.15;1.20;;;8.80;99.90;;;;;;3630657;39;20286;-75
2021/01/21 10:24:37;;;;;;;3.22;1.17;;;9.10;99.90;;;;;;3631486;39;20353;-75
2021/01/21 10:27:04;;;;;;;5.35;1.33;;;9.20;99.90;;;;;;3630764;39;20278;-75
2021/01/21 10:29:30;;;;;;;4.85;1.08;;;9.10;99.90;;;;;;3631042;39;20273;-75
2021/01/21 10:31:58;;;;;;;2.65;0.90;;;9.10;99.90;;;;;;3634152;39;20271;-74
2021/01/21 10:34:24;;;;;;;3.15;1.10;;;9.10;99.90;;;;;;3638073;39;20401;-75
2021/01/21 10:36:51;;;;;;;5.55;1.05;;;9.00;99.90;;;;;;3632458;39;20250;-74
2021/01/21 10:39:17;;;;;;;1.45;1.35;;;9.00;99.90;;;;;;3633136;31;20254;-75
2021/01/21 10:41:44;;;;;;;8.45;1.60;;;8.90;99.90;;;;;;3632138;39;20650;-74
2021/01/21 10:44:10;;;;;;;2.80;1.40;;;8.90;99.90;;;;;;3630177;39;20267;-74
2021/01/21 10:46:37;;;;;;;3.45;1.20;;;8.80;99.90;;;;;;3632483;39;20362;-75
2021/01/21 10:49:04;;;;;;;2.25;1.00;;;8.80;99.90;;;;;;3649180;31;20297;-75
2021/01/21 10:51:30;;;;;;;3.38;1.52;;;8.80;99.90;;;;;;3631359;39;20280;-75
2021/01/21 10:53:57;;;;;;;3.22;1.25;;;8.80;99.90;;;;;;3632507;39;20241;-74
2021/01/21 10:56:23;;;;;;;3.10;1.55;;;8.80;99.90;;;;;;3630436;39;20231;-75
2021/01/21 10:58:50;;;;;;;1.10;0.90;;;8.80;99.90;;;;;;3634173;39;20779;-75
2021/01/21 11:01:16;;;;;;;4.40;1.55;;;8.80;99.90;;;;;;3633989;39;20254;-74
2021/01/21 11:06:40;;;;;;;5.28;1.67;;;8.70;99.90;;;;;;3644110;39;20411;-75
2021/01/21 11:09:07;;;;;;;3.63;0.95;;;8.80;99.90;;;;;;3638834;39;20247;-75
2021/01/21 11:11:33;;;;;;;4.85;1.17;;;8.80;99.90;;;;;;3640614;39;21168;-75
2021/01/21 11:44:21;;;;;;;5.40;1.15;;;8.80;99.90;;;;;;3649669;31;20258;-74
2021/01/21 12:00:18;;;;;;;1.45;1.15;;;9.00;99.90;;;;;;3647864;31;20330;-74
2021/01/21 12:32:30;;;;;;;5.25;1.30;;;9.20;99.90;;;;;;3646371;31;20331;-76
2021/01/21 12:34:57;;;;;;;4.57;1.10;;;9.30;99.90;;;;;;3633703;39;20247;-76
2021/01/21 12:37:26;;;;;;;3.55;1.40;;;9.30;99.90;;;;;;3632578;39;20265;-76
2021/01/21 12:39:53;;;;;;;2.60;1.45;;;9.30;99.90;;;;;;3634469;39;20347;-74
2021/01/21 12:42:20;;;;;;;6.78;1.40;;;9.20;99.90;;;;;;3634052;39;20271;-74
2021/01/21 12:44:47;;;;;;;2.00;1.33;;;9.30;99.90;;;;;;3631892;39;20247;-74
2021/01/21 12:47:13;;;;;;;6.93;1.83;;;9.30;99.90;;;;;;3629972;39;20255;-74
2021/01/21 12:49:40;;;;;;;8.32;1.80;;;9.30;99.90;;;;;;3634669;39;20274;-74
2021/01/21 12:52:08;;;;;;;4.18;1.48;;;9.40;99.90;;;;;;3631324;39;20266;-74
2021/01/21 12:54:35;;;;;;;5.45;1.75;;;9.40;99.90;;;;;;3657397;31;20271;-74
2021/01/21 12:57:01;;;;;;;7.20;1.50;;;9.40;99.90;;;;;;3639872;31;20255;-74
2021/01/21 12:59:28;;;;;;;3.78;1.60;;;9.40;99.90;;;;;;3634607;39;20355;-74
2021/01/21 13:01:55;;;;;;;1.30;1.20;;;9.40;99.90;;;;;;3634116;39;20259;-74
2021/01/21 13:04:22;;;;;;;5.18;1.23;;;9.50;99.90;;;;;;3632708;39;20273;-73
2021/01/21 13:06:48;;;;;;;5.65;1.30;;;9.50;99.90;;;;;;3633335;39;21225;-74
2021/01/21 13:09:15;;;;;;;4.43;1.45;;;9.40;99.90;;;;;;3634637;39;20841;-74
2021/01/21 13:11:42;;;;;;;1.55;1.20;;;9.40;99.90;;;;;;3631262;39;20247;-74
2021/01/21 13:14:08;;;;;;;4.30;1.52;;;9.40;99.90;;;;;;3633202;39;20255;-74
2021/01/21 13:16:35;;;;;;;1.10;1.00;;;9.30;99.90;;;;;;3634084;39;20289;-74
2021/01/21 13:19:01;;;;;;;4.85;1.13;;;9.30;99.90;;;;;;3631269;39;20311;-74
2021/01/21 13:21:28;;;;;;;3.13;0.70;;;9.30;99.90;;;;;;3633604;39;20251;-74
2021/01/21 13:23:58;;;;;;;7.38;0.93;;;9.30;99.90;;;;;;3633672;39;20362;-74
2021/01/21 13:26:25;;;;;;;3.30;1.20;;;9.30;99.90;;;;;;3634712;39;20294;-75
2021/01/21 13:28:52;;;;;;;8.15;1.38;;;9.30;99.90;;;;;;3630928;39;20266;-74
2021/01/21 13:31:18;;;;;;;3.05;1.08;;;9.30;99.90;;;;;;3635020;39;20267;-74
2021/01/21 13:33:45;;;;;;;3.10;1.00;;;9.20;99.90;;;;;;3636114;39;20250;-76
2021/01/21 13:36:12;;;;;;;2.15;1.02;;;9.30;99.90;;;;;;3633812;39;20325;-76
2021/01/21 13:38:39;;;;;;;1.20;1.10;;;9.30;99.90;;;;;;3638039;39;20258;-75
2021/01/21 13:41:06;;;;;;;5.60;1.65;;;9.30;99.90;;;;;;3631393;39;20290;-75
2021/01/21 13:43:34;;;;;;;1.83;1.10;;;9.30;99.90;;;;;;3630851;39;20283;-75
2021/01/21 13:46:01;;;;;;;8.35;1.48;;;9.30;99.90;;;;;;3630955;39;20686;-76
2021/01/21 13:48:28;;;;;;;4.60;0.98;;;9.30;99.90;;;;;;3633332;39;20274;-75
2021/01/21 13:50:54;;;;;;;1.15;1.05;;;9.30;99.90;;;;;;3632762;39;20294;-76
2021/01/21 13:53:21;;;;;;;4.35;1.50;;;9.30;99.90;;;;;;3630791;39;20271;-76
2021/01/21 13:55:47;;;;;;;4.75;1.52;;;9.30;99.90;;;;;;3631185;39;20267;-76
2021/01/21 13:58:14;;;;;;;2.67;0.80;;;9.20;99.90;;;;;;3632591;39;20285;-76
2021/01/21 14:00:41;;;;;;;2.63;1.58;;;9.20;99.90;;;;;;3630759;39;20290;-76
2021/01/21 14:03:08;;;;;;;1.67;1.20;;;9.20;99.90;;;;;;3630632;39;20279;-75
2021/01/21 14:05:35;;;;;;;5.95;1.70;;;9.20;99.90;;;;;;3631443;39;20373;-75
2021/01/21 14:08:01;;;;;;;4.43;1.35;;;9.30;99.90;;;;;;3630284;39;20344;-76
2021/01/21 14:10:28;;;;;;;6.38;1.33;;;9.30;99.90;;;;;;3630580;39;20244;-74
2021/01/21 14:12:54;;;;;;;4.40;1.40;;;9.30;99.90;;;;;;3632121;39;20313;-74
2021/01/21 14:15:20;;;;;;;2.65;1.38;;;9.30;99.90;;;;;;3634191;39;20375;-74
2021/01/21 14:17:48;;;;;;;2.45;1.35;;;9.30;99.90;;;;;;3634546;39;20779;-74